sensor_id;sensor_type;location;lat;lon;timestamp;P1;durP1;ratioP1;P2;durP2;ratioP2
21334;SDS011;69435;52.670;13.544;2023-11-21T00:02:20;31.80;;;13.97;;
21334;SDS011;69435;52.670;13.544;2023-11-21T00:05:07;47.13;;;15.20;;
21334;SDS011;69435;52.670;13.544;2023-11-21T00:07:55;32.37;;;14.60;;
21334;SDS011;69435;52.670;13.544;2023-11-21T00:10:41;41.47;;;15.20;;
21334;SDS011;69435;52.670;13.544;2023-11-21T00:13:27;49.17;;;15.67;;
21334;SDS011;69435;52.670;13.544;2023-11-21T00:16:13;50.03;;;16.87;;
21334;SDS011;69435;52.670;13.544;2023-11-21T00:18:59;55.37;;;18.40;;
21334;SDS011;69435;52.670;13.544;2023-11-21T00:21:45;56.53;;;18.30;;
21334;SDS011;69435;52.670;13.544;2023-11-21T00:24:31;61.60;;;18.17;;
21334;SDS011;69435;52.670;13.544;2023-11-21T00:27:17;70.17;;;20.20;;
21334;SDS011;69435;52.670;13.544;2023-11-21T00:30:03;71.13;;;20.07;;
21334;SDS011;69435;52.670;13.544;2023-11-21T00:32:51;68.97;;;21.57;;
21334;SDS011;69435;52.670;13.544;2023-11-21T00:35:37;81.33;;;20.90;;
21334;SDS011;69435;52.670;13.544;2023-11-21T00:38:23;67.53;;;20.83;;
21334;SDS011;69435;52.670;13.544;2023-11-21T00:41:09;69.50;;;20.13;;
21334;SDS011;69435;52.670;13.544;2023-11-21T00:43:55;80.83;;;21.07;;
21334;SDS011;69435;52.670;13.544;2023-11-21T00:46:41;71.73;;;19.57;;
21334;SDS011;69435;52.670;13.544;2023-11-21T00:49:27;76.20;;;19.33;;
21334;SDS011;69435;52.670;13.544;2023-11-21T00:52:13;60.33;;;18.00;;
21334;SDS011;69435;52.670;13.544;2023-11-21T00:55:01;59.50;;;18.27;;
21334;SDS011;69435;52.670;13.544;2023-11-21T00:57:48;57.63;;;16.60;;
21334;SDS011;69435;52.670;13.544;2023-11-21T01:00:34;60.17;;;15.23;;
21334;SDS011;69435;52.670;13.544;2023-11-21T01:03:20;48.13;;;13.47;;
21334;SDS011;69435;52.670;13.544;2023-11-21T01:06:07;46.37;;;13.23;;
21334;SDS011;69435;52.670;13.544;2023-11-21T01:08:54;54.50;;;14.13;;
21334;SDS011;69435;52.670;13.544;2023-11-21T01:11:40;45.23;;;13.30;;
21334;SDS011;69435;52.670;13.544;2023-11-21T01:14:26;47.50;;;12.57;;
21334;SDS011;69435;52.670;13.544;2023-11-21T01:17:12;43.70;;;13.60;;
21334;SDS011;69435;52.670;13.544;2023-11-21T01:19:58;40.30;;;13.10;;
21334;SDS011;69435;52.670;13.544;2023-11-21T01:22:45;38.03;;;13.73;;
21334;SDS011;69435;52.670;13.544;2023-11-21T01:25:34;32.10;;;11.63;;
21334;SDS011;69435;52.670;13.544;2023-11-21T01:28:21;27.87;;;10.80;;
21334;SDS011;69435;52.670;13.544;2023-11-21T01:31:07;31.33;;;10.77;;
21334;SDS011;69435;52.670;13.544;2023-11-21T01:33:53;31.50;;;11.23;;
21334;SDS011;69435;52.670;13.544;2023-11-21T01:36:40;31.50;;;10.10;;
21334;SDS011;69435;52.670;13.544;2023-11-21T01:39:26;22.57;;;9.90;;
21334;SDS011;69435;52.670;13.544;2023-11-21T01:42:14;22.00;;;8.80;;
21334;SDS011;69435;52.670;13.544;2023-11-21T01:45:00;21.37;;;9.50;;
21334;SDS011;69435;52.670;13.544;2023-11-21T01:47:50;22.73;;;9.57;;
21334;SDS011;69435;52.670;13.544;2023-11-21T01:50:36;25.90;;;9.30;;
21334;SDS011;69435;52.670;13.544;2023-11-21T01:53:23;18.60;;;9.63;;
21334;SDS011;69435;52.670;13.544;2023-11-21T01:56:12;19.87;;;9.03;;
21334;SDS011;69435;52.670;13.544;2023-11-21T01:58:58;17.10;;;8.97;;
21334;SDS011;69435;52.670;13.544;2023-11-21T02:01:44;19.00;;;8.77;;
21334;SDS011;69435;52.670;13.544;2023-11-21T02:04:35;18.10;;;8.60;;
21334;SDS011;69435;52.670;13.544;2023-11-21T02:07:22;16.33;;;9.13;;
21334;SDS011;69435;52.670;13.544;2023-11-21T02:10:09;16.63;;;8.50;;
21334;SDS011;69435;52.670;13.544;2023-11-21T02:12:55;14.80;;;8.70;;
21334;SDS011;69435;52.670;13.544;2023-11-21T02:15:42;15.40;;;8.77;;
21334;SDS011;69435;52.670;13.544;2023-11-21T02:18:29;18.50;;;9.57;;
21334;SDS011;69435;52.670;13.544;2023-11-21T02:21:15;14.00;;;8.70;;
21334;SDS011;69435;52.670;13.544;2023-11-21T02:24:01;11.80;;;7.90;;
21334;SDS011;69435;52.670;13.544;2023-11-21T02:26:48;15.37;;;8.83;;
21334;SDS011;69435;52.670;13.544;2023-11-21T02:29:36;15.50;;;9.07;;
21334;SDS011;69435;52.670;13.544;2023-11-21T02:32:23;15.73;;;9.07;;
21334;SDS011;69435;52.670;13.544;2023-11-21T02:35:11;11.53;;;8.20;;
21334;SDS011;69435;52.670;13.544;2023-11-21T02:37:57;16.63;;;8.07;;
21334;SDS011;69435;52.670;13.544;2023-11-21T02:40:43;14.20;;;8.57;;
21334;SDS011;69435;52.670;13.544;2023-11-21T02:43:29;15.67;;;8.10;;
21334;SDS011;69435;52.670;13.544;2023-11-21T02:46:15;15.53;;;7.87;;
21334;SDS011;69435;52.670;13.544;2023-11-21T02:51:51;11.37;;;7.57;;
21334;SDS011;69435;52.670;13.544;2023-11-21T02:54:37;14.20;;;7.93;;
21334;SDS011;69435;52.670;13.544;2023-11-21T02:57:23;12.47;;;7.97;;
21334;SDS011;69435;52.670;13.544;2023-11-21T03:00:09;10.93;;;6.57;;
21334;SDS011;69435;52.670;13.544;2023-11-21T03:02:58;10.70;;;7.50;;
21334;SDS011;69435;52.670;13.544;2023-11-21T03:05:44;10.83;;;7.43;;
21334;SDS011;69435;52.670;13.544;2023-11-21T03:08:30;9.83;;;7.40;;
21334;SDS011;69435;52.670;13.544;2023-11-21T03:11:16;12.77;;;8.47;;
21334;SDS011;69435;52.670;13.544;2023-11-21T03:14:02;12.60;;;7.83;;
21334;SDS011;69435;52.670;13.544;2023-11-21T03:16:48;12.90;;;7.70;;
21334;SDS011;69435;52.670;13.544;2023-11-21T03:19:34;12.57;;;7.23;;
21334;SDS011;69435;52.670;13.544;2023-11-21T03:22:20;12.17;;;7.20;;
21334;SDS011;69435;52.670;13.544;2023-11-21T03:25:07;10.57;;;7.00;;
21334;SDS011;69435;52.670;13.544;2023-11-21T03:27:56;9.07;;;6.80;;
21334;SDS011;69435;52.670;13.544;2023-11-21T03:30:43;7.47;;;6.63;;
21334;SDS011;69435;52.670;13.544;2023-11-21T03:33:29;11.97;;;7.47;;
21334;SDS011;69435;52.670;13.544;2023-11-21T03:36:15;9.73;;;6.50;;
21334;SDS011;69435;52.670;13.544;2023-11-21T03:39:01;8.07;;;6.60;;
21334;SDS011;69435;52.670;13.544;2023-11-21T03:41:47;14.53;;;6.97;;
21334;SDS011;69435;52.670;13.544;2023-11-21T03:44:33;10.03;;;6.77;;
21334;SDS011;69435;52.670;13.544;2023-11-21T03:47:19;10.80;;;6.60;;
21334;SDS011;69435;52.670;13.544;2023-11-21T03:50:05;9.03;;;5.97;;
21334;SDS011;69435;52.670;13.544;2023-11-21T03:52:54;7.80;;;6.07;;
21334;SDS011;69435;52.670;13.544;2023-11-21T03:55:40;8.93;;;6.43;;
21334;SDS011;69435;52.670;13.544;2023-11-21T03:58:26;6.80;;;5.50;;
21334;SDS011;69435;52.670;13.544;2023-11-21T04:01:12;9.43;;;6.50;;
21334;SDS011;69435;52.670;13.544;2023-11-21T04:04:06;11.27;;;6.13;;
21334;SDS011;69435;52.670;13.544;2023-11-21T04:06:52;9.40;;;6.17;;
21334;SDS011;69435;52.670;13.544;2023-11-21T04:09:39;7.60;;;5.60;;
21334;SDS011;69435;52.670;13.544;2023-11-21T04:12:26;9.47;;;6.00;;
21334;SDS011;69435;52.670;13.544;2023-11-21T04:15:12;8.17;;;5.70;;
21334;SDS011;69435;52.670;13.544;2023-11-21T04:17:59;7.50;;;5.70;;
21334;SDS011;69435;52.670;13.544;2023-11-21T04:20:45;8.23;;;5.43;;
21334;SDS011;69435;52.670;13.544;2023-11-21T04:23:31;5.77;;;4.93;;
21334;SDS011;69435;52.670;13.544;2023-11-21T04:26:18;8.33;;;5.07;;
21334;SDS011;69435;52.670;13.544;2023-11-21T04:29:04;5.40;;;4.67;;
21334;SDS011;69435;52.670;13.544;2023-11-21T04:31:50;10.87;;;5.10;;
21334;SDS011;69435;52.670;13.544;2023-11-21T04:34:36;6.73;;;4.70;;
21334;SDS011;69435;52.670;13.544;2023-11-21T04:37:22;6.63;;;4.83;;
21334;SDS011;69435;52.670;13.544;2023-11-21T04:40:08;5.97;;;4.57;;
21334;SDS011;69435;52.670;13.544;2023-11-21T04:42:55;5.97;;;4.40;;
21334;SDS011;69435;52.670;13.544;2023-11-21T04:45:42;5.80;;;4.07;;
21334;SDS011;69435;52.670;13.544;2023-11-21T04:48:28;10.53;;;4.83;;
21334;SDS011;69435;52.670;13.544;2023-11-21T04:51:14;6.10;;;5.20;;
21334;SDS011;69435;52.670;13.544;2023-11-21T04:54:00;6.63;;;4.83;;
21334;SDS011;69435;52.670;13.544;2023-11-21T04:56:46;6.43;;;4.97;;
21334;SDS011;69435;52.670;13.544;2023-11-21T04:59:32;6.77;;;5.27;;
21334;SDS011;69435;52.670;13.544;2023-11-21T05:02:19;6.63;;;4.80;;
21334;SDS011;69435;52.670;13.544;2023-11-21T05:05:06;6.47;;;4.73;;
21334;SDS011;69435;52.670;13.544;2023-11-21T05:07:55;5.80;;;5.20;;
21334;SDS011;69435;52.670;13.544;2023-11-21T05:10:41;6.97;;;5.13;;
21334;SDS011;69435;52.670;13.544;2023-11-21T05:13:27;6.43;;;5.27;;
21334;SDS011;69435;52.670;13.544;2023-11-21T05:16:13;6.00;;;4.20;;
21334;SDS011;69435;52.670;13.544;2023-11-21T05:19:00;6.27;;;4.70;;
21334;SDS011;69435;52.670;13.544;2023-11-21T05:21:46;6.97;;;4.97;;
21334;SDS011;69435;52.670;13.544;2023-11-21T05:24:32;4.43;;;4.03;;
21334;SDS011;69435;52.670;13.544;2023-11-21T05:27:18;5.13;;;4.40;;
21334;SDS011;69435;52.670;13.544;2023-11-21T05:30:05;6.17;;;4.60;;
21334;SDS011;69435;52.670;13.544;2023-11-21T05:32:52;7.00;;;4.37;;
21334;SDS011;69435;52.670;13.544;2023-11-21T05:35:38;4.87;;;4.37;;
21334;SDS011;69435;52.670;13.544;2023-11-21T05:38:24;6.27;;;4.03;;
21334;SDS011;69435;52.670;13.544;2023-11-21T05:41:11;5.30;;;4.40;;
21334;SDS011;69435;52.670;13.544;2023-11-21T05:43:58;4.97;;;4.23;;
21334;SDS011;69435;52.670;13.544;2023-11-21T05:46:44;7.20;;;4.73;;
21334;SDS011;69435;52.670;13.544;2023-11-21T05:49:30;4.97;;;4.43;;
21334;SDS011;69435;52.670;13.544;2023-11-21T05:52:17;5.47;;;4.20;;
21334;SDS011;69435;52.670;13.544;2023-11-21T05:55:04;5.87;;;4.33;;
21334;SDS011;69435;52.670;13.544;2023-11-21T05:57:52;5.83;;;4.50;;
21334;SDS011;69435;52.670;13.544;2023-11-21T06:00:38;6.43;;;4.77;;
21334;SDS011;69435;52.670;13.544;2023-11-21T06:03:24;8.13;;;5.13;;
21334;SDS011;69435;52.670;13.544;2023-11-21T06:06:12;6.13;;;4.73;;
21334;SDS011;69435;52.670;13.544;2023-11-21T06:08:58;6.33;;;4.47;;
21334;SDS011;69435;52.670;13.544;2023-11-21T06:11:44;4.93;;;4.43;;
21334;SDS011;69435;52.670;13.544;2023-11-21T06:14:30;7.00;;;4.83;;
21334;SDS011;69435;52.670;13.544;2023-11-21T06:17:18;5.67;;;5.10;;
21334;SDS011;69435;52.670;13.544;2023-11-21T06:20:08;7.50;;;4.70;;
21334;SDS011;69435;52.670;13.544;2023-11-21T06:22:59;6.30;;;4.60;;
21334;SDS011;69435;52.670;13.544;2023-11-21T06:25:48;9.00;;;4.67;;
21334;SDS011;69435;52.670;13.544;2023-11-21T06:28:35;5.87;;;4.97;;
21334;SDS011;69435;52.670;13.544;2023-11-21T06:31:23;5.63;;;4.70;;
21334;SDS011;69435;52.670;13.544;2023-11-21T06:34:09;7.70;;;4.30;;
21334;SDS011;69435;52.670;13.544;2023-11-21T06:36:55;9.13;;;5.03;;
21334;SDS011;69435;52.670;13.544;2023-11-21T06:39:42;5.50;;;4.90;;
21334;SDS011;69435;52.670;13.544;2023-11-21T06:42:28;6.67;;;4.20;;
21334;SDS011;69435;52.670;13.544;2023-11-21T06:45:15;4.07;;;3.67;;
21334;SDS011;69435;52.670;13.544;2023-11-21T06:48:02;5.60;;;4.80;;
21334;SDS011;69435;52.670;13.544;2023-11-21T06:50:48;5.90;;;4.50;;
21334;SDS011;69435;52.670;13.544;2023-11-21T06:53:34;4.07;;;3.73;;
21334;SDS011;69435;52.670;13.544;2023-11-21T06:56:22;3.90;;;3.50;;
21334;SDS011;69435;52.670;13.544;2023-11-21T06:59:08;5.73;;;4.00;;
21334;SDS011;69435;52.670;13.544;2023-11-21T07:01:56;4.13;;;3.73;;
21334;SDS011;69435;52.670;13.544;2023-11-21T07:04:42;5.93;;;3.90;;
21334;SDS011;69435;52.670;13.544;2023-11-21T07:07:28;4.07;;;3.53;;
21334;SDS011;69435;52.670;13.544;2023-11-21T07:10:14;4.80;;;3.90;;
21334;SDS011;69435;52.670;13.544;2023-11-21T07:13:00;4.30;;;3.90;;
21334;SDS011;69435;52.670;13.544;2023-11-21T07:15:48;4.20;;;3.70;;
21334;SDS011;69435;52.670;13.544;2023-11-21T07:18:35;3.80;;;3.40;;
21334;SDS011;69435;52.670;13.544;2023-11-21T07:21:21;6.00;;;4.20;;
21334;SDS011;69435;52.670;13.544;2023-11-21T07:24:07;4.93;;;3.90;;
21334;SDS011;69435;52.670;13.544;2023-11-21T07:26:54;4.57;;;4.17;;
21334;SDS011;69435;52.670;13.544;2023-11-21T07:29:41;6.67;;;4.60;;
21334;SDS011;69435;52.670;13.544;2023-11-21T07:32:27;4.30;;;3.90;;
21334;SDS011;69435;52.670;13.544;2023-11-21T07:35:13;4.40;;;4.00;;
21334;SDS011;69435;52.670;13.544;2023-11-21T07:37:59;4.73;;;4.20;;
21334;SDS011;69435;52.670;13.544;2023-11-21T07:40:45;5.07;;;4.27;;
21334;SDS011;69435;52.670;13.544;2023-11-21T07:43:31;4.97;;;4.57;;
21334;SDS011;69435;52.670;13.544;2023-11-21T07:46:20;4.60;;;4.10;;
21334;SDS011;69435;52.670;13.544;2023-11-21T07:49:06;6.70;;;4.27;;
21334;SDS011;69435;52.670;13.544;2023-11-21T07:51:52;6.00;;;4.23;;
21334;SDS011;69435;52.670;13.544;2023-11-21T07:54:38;4.53;;;4.13;;
21334;SDS011;69435;52.670;13.544;2023-11-21T07:57:24;6.30;;;4.37;;
21334;SDS011;69435;52.670;13.544;2023-11-21T08:00:11;5.80;;;4.53;;
21334;SDS011;69435;52.670;13.544;2023-11-21T08:03:00;7.73;;;4.27;;
21334;SDS011;69435;52.670;13.544;2023-11-21T08:05:46;5.10;;;4.00;;
21334;SDS011;69435;52.670;13.544;2023-11-21T08:08:32;6.10;;;3.77;;
21334;SDS011;69435;52.670;13.544;2023-11-21T08:11:18;5.03;;;4.40;;
21334;SDS011;69435;52.670;13.544;2023-11-21T08:14:05;7.67;;;4.90;;
21334;SDS011;69435;52.670;13.544;2023-11-21T08:16:51;8.40;;;4.73;;
21334;SDS011;69435;52.670;13.544;2023-11-21T08:19:37;12.60;;;5.20;;
21334;SDS011;69435;52.670;13.544;2023-11-21T08:22:23;13.20;;;6.27;;
21334;SDS011;69435;52.670;13.544;2023-11-21T08:25:10;9.80;;;6.30;;
21334;SDS011;69435;52.670;13.544;2023-11-21T08:27:56;15.57;;;6.10;;
21334;SDS011;69435;52.670;13.544;2023-11-21T08:30:43;8.30;;;4.97;;
21334;SDS011;69435;52.670;13.544;2023-11-21T08:33:29;16.43;;;5.77;;
21334;SDS011;69435;52.670;13.544;2023-11-21T08:36:15;13.57;;;6.30;;
21334;SDS011;69435;52.670;13.544;2023-11-21T08:39:01;19.17;;;7.70;;
21334;SDS011;69435;52.670;13.544;2023-11-21T08:41:47;14.73;;;6.70;;
21334;SDS011;69435;52.670;13.544;2023-11-21T08:44:33;14.10;;;6.33;;
21334;SDS011;69435;52.670;13.544;2023-11-21T08:47:19;15.10;;;6.63;;
21334;SDS011;69435;52.670;13.544;2023-11-21T08:50:06;11.57;;;5.80;;
21334;SDS011;69435;52.670;13.544;2023-11-21T08:52:53;17.93;;;6.47;;
21334;SDS011;69435;52.670;13.544;2023-11-21T08:55:39;20.77;;;6.77;;
21334;SDS011;69435;52.670;13.544;2023-11-21T08:58:25;11.70;;;5.23;;
21334;SDS011;69435;52.670;13.544;2023-11-21T09:01:11;11.73;;;4.93;;
21334;SDS011;69435;52.670;13.544;2023-11-21T09:03:58;7.87;;;3.67;;
21334;SDS011;69435;52.670;13.544;2023-11-21T09:06:44;6.10;;;3.67;;
21334;SDS011;69435;52.670;13.544;2023-11-21T09:09:30;5.90;;;3.30;;
21334;SDS011;69435;52.670;13.544;2023-11-21T09:12:16;9.33;;;4.53;;
21334;SDS011;69435;52.670;13.544;2023-11-21T09:15:02;10.93;;;4.70;;
21334;SDS011;69435;52.670;13.544;2023-11-21T09:17:55;8.50;;;4.20;;
21334;SDS011;69435;52.670;13.544;2023-11-21T09:20:42;7.70;;;3.97;;
21334;SDS011;69435;52.670;13.544;2023-11-21T09:23:30;4.93;;;2.97;;
21334;SDS011;69435;52.670;13.544;2023-11-21T09:26:16;3.40;;;3.00;;
21334;SDS011;69435;52.670;13.544;2023-11-21T09:29:04;4.40;;;3.00;;
21334;SDS011;69435;52.670;13.544;2023-11-21T09:31:50;3.47;;;2.70;;
21334;SDS011;69435;52.670;13.544;2023-11-21T09:34:40;2.47;;;2.27;;
21334;SDS011;69435;52.670;13.544;2023-11-21T09:37:27;3.00;;;2.50;;
21334;SDS011;69435;52.670;13.544;2023-11-21T09:40:13;4.27;;;2.23;;
21334;SDS011;69435;52.670;13.544;2023-11-21T09:43:02;5.47;;;2.60;;
21334;SDS011;69435;52.670;13.544;2023-11-21T09:45:54;3.33;;;2.97;;
21334;SDS011;69435;52.670;13.544;2023-11-21T09:48:48;3.40;;;3.10;;
21334;SDS011;69435;52.670;13.544;2023-11-21T09:51:44;2.50;;;2.30;;
21334;SDS011;69435;52.670;13.544;2023-11-21T09:54:32;3.43;;;2.87;;
21334;SDS011;69435;52.670;13.544;2023-11-21T09:57:20;4.30;;;3.40;;
21334;SDS011;69435;52.670;13.544;2023-11-21T10:00:09;3.50;;;3.20;;
21334;SDS011;69435;52.670;13.544;2023-11-21T10:02:57;3.47;;;3.20;;
21334;SDS011;69435;52.670;13.544;2023-11-21T10:05:45;3.67;;;3.30;;
21334;SDS011;69435;52.670;13.544;2023-11-21T10:08:33;4.90;;;3.23;;
21334;SDS011;69435;52.670;13.544;2023-11-21T10:11:22;3.07;;;2.77;;
21334;SDS011;69435;52.670;13.544;2023-11-21T10:14:11;4.33;;;2.87;;
21334;SDS011;69435;52.670;13.544;2023-11-21T10:16:59;4.83;;;2.90;;
21334;SDS011;69435;52.670;13.544;2023-11-21T10:19:48;5.40;;;3.27;;
21334;SDS011;69435;52.670;13.544;2023-11-21T10:22:35;3.30;;;2.67;;
21334;SDS011;69435;52.670;13.544;2023-11-21T10:25:21;2.80;;;2.60;;
21334;SDS011;69435;52.670;13.544;2023-11-21T10:28:07;3.27;;;3.07;;
21334;SDS011;69435;52.670;13.544;2023-11-21T10:30:56;2.90;;;2.70;;
21334;SDS011;69435;52.670;13.544;2023-11-21T10:33:41;3.63;;;3.10;;
21334;SDS011;69435;52.670;13.544;2023-11-21T10:36:28;3.37;;;3.13;;
21334;SDS011;69435;52.670;13.544;2023-11-21T10:39:17;5.03;;;3.50;;
21334;SDS011;69435;52.670;13.544;2023-11-21T10:42:07;2.97;;;2.07;;
21334;SDS011;69435;52.670;13.544;2023-11-21T10:44:55;2.83;;;2.50;;
21334;SDS011;69435;52.670;13.544;2023-11-21T10:47:42;2.93;;;2.63;;
21334;SDS011;69435;52.670;13.544;2023-11-21T10:50:29;3.63;;;2.50;;
21334;SDS011;69435;52.670;13.544;2023-11-21T10:53:15;3.57;;;2.63;;
21334;SDS011;69435;52.670;13.544;2023-11-21T10:56:02;2.57;;;2.37;;
21334;SDS011;69435;52.670;13.544;2023-11-21T10:58:53;2.80;;;2.53;;
21334;SDS011;69435;52.670;13.544;2023-11-21T11:01:40;3.50;;;3.20;;
21334;SDS011;69435;52.670;13.544;2023-11-21T11:04:30;3.37;;;3.07;;
21334;SDS011;69435;52.670;13.544;2023-11-21T11:07:17;2.77;;;2.57;;
21334;SDS011;69435;52.670;13.544;2023-11-21T11:10:08;2.60;;;2.40;;
21334;SDS011;69435;52.670;13.544;2023-11-21T11:12:59;3.43;;;2.60;;
21334;SDS011;69435;52.670;13.544;2023-11-21T11:15:47;3.00;;;2.70;;
21334;SDS011;69435;52.670;13.544;2023-11-21T11:18:33;3.33;;;2.60;;
21334;SDS011;69435;52.670;13.544;2023-11-21T11:28:07;2.83;;;2.63;;
21334;SDS011;69435;52.670;13.544;2023-11-21T11:31:09;3.27;;;2.43;;
21334;SDS011;69435;52.670;13.544;2023-11-21T11:34:28;2.23;;;2.07;;
21334;SDS011;69435;52.670;13.544;2023-11-21T11:37:18;4.27;;;2.53;;
21334;SDS011;69435;52.670;13.544;2023-11-21T11:40:10;3.10;;;2.80;;
21334;SDS011;69435;52.670;13.544;2023-11-21T11:42:57;3.07;;;2.77;;
21334;SDS011;69435;52.670;13.544;2023-11-21T11:45:47;5.53;;;2.93;;
21334;SDS011;69435;52.670;13.544;2023-11-21T11:48:40;2.73;;;2.53;;
21334;SDS011;69435;52.670;13.544;2023-11-21T11:51:26;3.10;;;2.83;;
21334;SDS011;69435;52.670;13.544;2023-11-21T11:54:12;2.87;;;2.40;;
21334;SDS011;69435;52.670;13.544;2023-11-21T11:56:58;3.17;;;2.87;;
21334;SDS011;69435;52.670;13.544;2023-11-21T12:03:10;2.37;;;2.20;;
21334;SDS011;69435;52.670;13.544;2023-11-21T12:05:58;3.60;;;3.30;;
21334;SDS011;69435;52.670;13.544;2023-11-21T12:08:46;3.03;;;2.80;;
21334;SDS011;69435;52.670;13.544;2023-11-21T12:11:32;3.03;;;2.83;;
21334;SDS011;69435;52.670;13.544;2023-11-21T12:14:20;8.90;;;4.87;;
21334;SDS011;69435;52.670;13.544;2023-11-21T12:17:08;7.17;;;4.40;;
21334;SDS011;69435;52.670;13.544;2023-11-21T12:20:01;6.07;;;4.63;;
21334;SDS011;69435;52.670;13.544;2023-11-21T12:22:59;4.33;;;3.13;;
21334;SDS011;69435;52.670;13.544;2023-11-21T12:25:46;4.23;;;3.47;;
21334;SDS011;69435;52.670;13.544;2023-11-21T12:28:32;4.23;;;3.77;;
21334;SDS011;69435;52.670;13.544;2023-11-21T12:31:19;4.20;;;2.70;;
21334;SDS011;69435;52.670;13.544;2023-11-21T12:34:05;2.77;;;2.57;;
21334;SDS011;69435;52.670;13.544;2023-11-21T12:36:52;2.90;;;2.67;;
21334;SDS011;69435;52.670;13.544;2023-11-21T12:39:40;2.73;;;2.53;;
21334;SDS011;69435;52.670;13.544;2023-11-21T12:42:26;3.53;;;3.23;;
21334;SDS011;69435;52.670;13.544;2023-11-21T12:45:22;3.20;;;2.90;;
21334;SDS011;69435;52.670;13.544;2023-11-21T12:48:16;2.97;;;2.77;;
21334;SDS011;69435;52.670;13.544;2023-11-21T12:51:10;4.73;;;3.40;;
21334;SDS011;69435;52.670;13.544;2023-11-21T12:53:57;3.57;;;3.27;;
21334;SDS011;69435;52.670;13.544;2023-11-21T12:56:47;4.20;;;3.73;;
21334;SDS011;69435;52.670;13.544;2023-11-21T12:59:35;4.77;;;3.60;;
21334;SDS011;69435;52.670;13.544;2023-11-21T13:02:27;4.30;;;3.80;;
21334;SDS011;69435;52.670;13.544;2023-11-21T13:05:22;5.73;;;4.70;;
21334;SDS011;69435;52.670;13.544;2023-11-21T13:08:23;5.60;;;4.70;;
21334;SDS011;69435;52.670;13.544;2023-11-21T13:11:10;5.70;;;4.40;;
21334;SDS011;69435;52.670;13.544;2023-11-21T13:13:59;4.67;;;4.17;;
21334;SDS011;69435;52.670;13.544;2023-11-21T13:16:46;5.80;;;4.70;;
21334;SDS011;69435;52.670;13.544;2023-11-21T13:19:32;6.23;;;4.57;;
21334;SDS011;69435;52.670;13.544;2023-11-21T13:22:18;6.07;;;5.03;;
21334;SDS011;69435;52.670;13.544;2023-11-21T13:25:04;5.90;;;5.30;;
21334;SDS011;69435;52.670;13.544;2023-11-21T13:27:55;7.23;;;5.40;;
21334;SDS011;69435;52.670;13.544;2023-11-21T13:30:46;6.27;;;5.50;;
21334;SDS011;69435;52.670;13.544;2023-11-21T13:33:33;6.73;;;6.03;;
21334;SDS011;69435;52.670;13.544;2023-11-21T13:36:23;10.23;;;7.13;;
21334;SDS011;69435;52.670;13.544;2023-11-21T13:39:10;8.40;;;6.20;;
21334;SDS011;69435;52.670;13.544;2023-11-21T13:42:00;7.67;;;6.37;;
21334;SDS011;69435;52.670;13.544;2023-11-21T13:44:48;10.57;;;8.03;;
21334;SDS011;69435;52.670;13.544;2023-11-21T13:47:37;9.23;;;7.57;;
21334;SDS011;69435;52.670;13.544;2023-11-21T13:50:24;13.77;;;8.63;;
21334;SDS011;69435;52.670;13.544;2023-11-21T13:53:18;13.37;;;9.03;;
21334;SDS011;69435;52.670;13.544;2023-11-21T13:56:07;12.80;;;9.30;;
21334;SDS011;69435;52.670;13.544;2023-11-21T13:58:54;15.67;;;10.07;;
21334;SDS011;69435;52.670;13.544;2023-11-21T14:01:41;13.63;;;9.80;;
21334;SDS011;69435;52.670;13.544;2023-11-21T14:04:39;19.07;;;11.43;;
21334;SDS011;69435;52.670;13.544;2023-11-21T14:07:41;17.53;;;10.47;;
21334;SDS011;69435;52.670;13.544;2023-11-21T14:10:33;18.47;;;11.03;;
21334;SDS011;69435;52.670;13.544;2023-11-21T14:13:35;18.30;;;11.07;;
21334;SDS011;69435;52.670;13.544;2023-11-21T14:16:21;14.17;;;10.73;;
21334;SDS011;69435;52.670;13.544;2023-11-21T14:19:08;15.23;;;10.13;;
21334;SDS011;69435;52.670;13.544;2023-11-21T14:22:01;17.27;;;10.83;;
21334;SDS011;69435;52.670;13.544;2023-11-21T14:24:47;16.20;;;10.27;;
21334;SDS011;69435;52.670;13.544;2023-11-21T14:27:35;15.27;;;11.00;;
21334;SDS011;69435;52.670;13.544;2023-11-21T14:30:21;17.03;;;10.47;;
21334;SDS011;69435;52.670;13.544;2023-11-21T14:33:08;15.90;;;11.03;;
21334;SDS011;69435;52.670;13.544;2023-11-21T14:35:56;12.00;;;9.33;;
21334;SDS011;69435;52.670;13.544;2023-11-21T14:38:43;19.33;;;11.57;;
21334;SDS011;69435;52.670;13.544;2023-11-21T14:41:29;16.20;;;9.50;;
21334;SDS011;69435;52.670;13.544;2023-11-21T14:44:15;13.07;;;9.73;;
21334;SDS011;69435;52.670;13.544;2023-11-21T14:47:01;16.53;;;10.20;;
21334;SDS011;69435;52.670;13.544;2023-11-21T14:49:52;16.87;;;9.53;;
21334;SDS011;69435;52.670;13.544;2023-11-21T14:52:38;16.10;;;8.90;;
21334;SDS011;69435;52.670;13.544;2023-11-21T14:55:39;12.87;;;9.10;;
21334;SDS011;69435;52.670;13.544;2023-11-21T14:58:42;13.77;;;9.37;;
21334;SDS011;69435;52.670;13.544;2023-11-21T15:01:30;16.63;;;10.27;;
21334;SDS011;69435;52.670;13.544;2023-11-21T15:04:36;9.97;;;7.73;;
21334;SDS011;69435;52.670;13.544;2023-11-21T15:07:22;14.70;;;10.07;;
21334;SDS011;69435;52.670;13.544;2023-11-21T15:10:11;16.00;;;10.27;;
21334;SDS011;69435;52.670;13.544;2023-11-21T15:13:00;15.43;;;10.30;;
21334;SDS011;69435;52.670;13.544;2023-11-21T15:15:48;16.10;;;10.83;;
21334;SDS011;69435;52.670;13.544;2023-11-21T15:18:34;15.67;;;10.03;;
21334;SDS011;69435;52.670;13.544;2023-11-21T15:21:20;13.37;;;9.13;;
21334;SDS011;69435;52.670;13.544;2023-11-21T15:24:10;14.77;;;10.30;;
21334;SDS011;69435;52.670;13.544;2023-11-21T15:26:56;12.47;;;9.70;;
21334;SDS011;69435;52.670;13.544;2023-11-21T15:29:42;17.00;;;8.80;;
21334;SDS011;69435;52.670;13.544;2023-11-21T15:32:29;15.83;;;10.20;;
21334;SDS011;69435;52.670;13.544;2023-11-21T15:35:15;15.70;;;9.70;;
21334;SDS011;69435;52.670;13.544;2023-11-21T15:38:01;13.10;;;10.10;;
21334;SDS011;69435;52.670;13.544;2023-11-21T15:40:47;15.20;;;8.50;;
21334;SDS011;69435;52.670;13.544;2023-11-21T15:43:34;15.10;;;10.07;;
21334;SDS011;69435;52.670;13.544;2023-11-21T15:46:21;12.47;;;8.13;;
21334;SDS011;69435;52.670;13.544;2023-11-21T15:49:07;14.73;;;9.20;;
21334;SDS011;69435;52.670;13.544;2023-11-21T15:51:57;17.13;;;9.70;;
21334;SDS011;69435;52.670;13.544;2023-11-21T15:54:44;11.57;;;9.00;;
21334;SDS011;69435;52.670;13.544;2023-11-21T15:57:31;16.00;;;9.07;;
21334;SDS011;69435;52.670;13.544;2023-11-21T16:00:17;13.20;;;8.77;;
21334;SDS011;69435;52.670;13.544;2023-11-21T16:03:06;14.43;;;8.43;;
21334;SDS011;69435;52.670;13.544;2023-11-21T16:05:54;13.53;;;8.97;;
21334;SDS011;69435;52.670;13.544;2023-11-21T16:08:40;10.00;;;7.87;;
21334;SDS011;69435;52.670;13.544;2023-11-21T16:11:27;12.43;;;8.30;;
21334;SDS011;69435;52.670;13.544;2023-11-21T16:14:15;10.93;;;7.67;;
21334;SDS011;69435;52.670;13.544;2023-11-21T16:17:04;11.43;;;8.07;;
21334;SDS011;69435;52.670;13.544;2023-11-21T16:19:53;13.03;;;8.93;;
21334;SDS011;69435;52.670;13.544;2023-11-21T16:22:41;11.50;;;8.40;;
21334;SDS011;69435;52.670;13.544;2023-11-21T16:25:27;11.27;;;7.97;;
21334;SDS011;69435;52.670;13.544;2023-11-21T16:28:13;9.97;;;7.53;;
21334;SDS011;69435;52.670;13.544;2023-11-21T16:30:59;12.83;;;7.57;;
21334;SDS011;69435;52.670;13.544;2023-11-21T16:33:46;9.10;;;7.43;;
21334;SDS011;69435;52.670;13.544;2023-11-21T16:36:33;10.60;;;7.47;;
21334;SDS011;69435;52.670;13.544;2023-11-21T16:39:19;13.57;;;7.27;;